Skip Navigation LinksHome page > Weather > Current weather Skip Navigation Links

Current Weather

San Diego Intl-Lindbergh Fld, San Diego

For information only: do not use for flight planning or navigation.
Latest weather
Observation time Monday, December 6, 2021 5:51 AM PST
Local time Monday, December 6, 2021 6:00 AM PST
Flight conditions Visual Meteorological Conditions
Winds
Wind direction North-Northwest (330°)
Wind speed 3 mph
Visibility 5 mi.
Present weather mist
Sky condition
Ceiling unlimited
Sky clear
Temperature 47°F
Dewpoint 45°F
Altimeter 30.07 in.Hg
Derived measurements
Relative humidity 93%
Wind chill 46°F
Density altitude -815 ft.
Sea-level pressure 30.07 in.Hg
Remarks
Automated weather observing station with precipitation discriminator.
METAR KSAN 061351Z 33003KT 5SM BR CLR 08/07 A3007 RMK AO2 SLP183 T00830072

Settings

Location code

InnerDrive.Weather 4.0.6770.0 Release CLR 4.0.30319.42000
Copyright ©2018 Inner Drive Technology. All rights reserved. Portions Copyright ©1986-2018 David Braverman.

Find weather

Site navigation


Skip Navigation Links

Place info

Page info

PayPal - The safer, easier way to pay online!

Return home.

Copyright ©2021 Inner Drive Technology. Purveyors of fine, hand-crafted computer software. Page printed 2021-12-06T14:00:25 UTC.